sensor_id;sensor_type;location;lat;lon;timestamp;pressure;altitude;pressure_sealevel;temperature;humidity
71299;BME280;59083;47.974;21.722;2023-03-25T00:00:14;99414.75;;;15.58;57.43
71299;BME280;59083;47.974;21.722;2023-03-25T00:03:19;99408.81;;;15.56;57.86
71299;BME280;59083;47.974;21.722;2023-03-25T00:06:20;99407.56;;;15.47;58.21
71299;BME280;59083;47.974;21.722;2023-03-25T00:09:22;99406.75;;;15.47;58.43
71299;BME280;59083;47.974;21.722;2023-03-25T00:12:23;99401.84;;;15.44;58.28
71299;BME280;59083;47.974;21.722;2023-03-25T00:15:24;99410.41;;;15.41;58.33
71299;BME280;59083;47.974;21.722;2023-03-25T00:18:27;99418.28;;;15.30;59.24
71299;BME280;59083;47.974;21.722;2023-03-25T00:21:29;99402.47;;;15.17;59.72
71299;BME280;59083;47.974;21.722;2023-03-25T00:24:33;99403.56;;;15.05;60.23
71299;BME280;59083;47.974;21.722;2023-03-25T00:27:34;99410.06;;;14.92;60.42
71299;BME280;59083;47.974;21.722;2023-03-25T00:30:38;99398.94;;;14.72;61.13
71299;BME280;59083;47.974;21.722;2023-03-25T00:33:39;99400.00;;;14.59;61.56
71299;BME280;59083;47.974;21.722;2023-03-25T00:36:41;99401.78;;;14.54;62.40
71299;BME280;59083;47.974;21.722;2023-03-25T00:39:44;99397.25;;;14.42;63.34
71299;BME280;59083;47.974;21.722;2023-03-25T00:42:45;99393.84;;;14.35;63.48
71299;BME280;59083;47.974;21.722;2023-03-25T00:45:54;99395.62;;;14.30;63.79
71299;BME280;59083;47.974;21.722;2023-03-25T00:48:56;99389.47;;;14.29;63.90
71299;BME280;59083;47.974;21.722;2023-03-25T00:51:58;99392.25;;;14.34;64.11
71299;BME280;59083;47.974;21.722;2023-03-25T00:54:59;99390.13;;;14.36;63.87
71299;BME280;59083;47.974;21.722;2023-03-25T00:58:02;99388.50;;;14.35;64.44
71299;BME280;59083;47.974;21.722;2023-03-25T01:01:11;99385.25;;;14.33;64.52
71299;BME280;59083;47.974;21.722;2023-03-25T01:04:14;99400.97;;;14.30;64.99
71299;BME280;59083;47.974;21.722;2023-03-25T01:07:17;99394.81;;;14.29;64.54
71299;BME280;59083;47.974;21.722;2023-03-25T01:10:20;99385.88;;;14.24;65.70
71299;BME280;59083;47.974;21.722;2023-03-25T01:13:22;99381.78;;;14.21;65.58
71299;BME280;59083;47.974;21.722;2023-03-25T01:16:25;99388.66;;;14.17;66.16
71299;BME280;59083;47.974;21.722;2023-03-25T01:19:27;99384.81;;;14.13;66.37
71299;BME280;59083;47.974;21.722;2023-03-25T01:22:28;99384.69;;;14.08;66.62
71299;BME280;59083;47.974;21.722;2023-03-25T01:25:30;99388.78;;;13.99;67.45
71299;BME280;59083;47.974;21.722;2023-03-25T01:28:31;99383.22;;;13.89;67.28
71299;BME280;59083;47.974;21.722;2023-03-25T01:31:32;99382.97;;;13.79;68.22
71299;BME280;59083;47.974;21.722;2023-03-25T01:34:33;99383.09;;;13.72;68.91
71299;BME280;59083;47.974;21.722;2023-03-25T01:37:38;99370.84;;;13.64;69.02
71299;BME280;59083;47.974;21.722;2023-03-25T01:40:39;99365.94;;;13.61;69.54
71299;BME280;59083;47.974;21.722;2023-03-25T01:43:40;99366.09;;;13.55;70.26
71299;BME280;59083;47.974;21.722;2023-03-25T01:46:42;99367.00;;;13.49;70.19
71299;BME280;59083;47.974;21.722;2023-03-25T01:49:45;99363.84;;;13.40;70.49
71299;BME280;59083;47.974;21.722;2023-03-25T01:52:49;99351.75;;;13.26;71.68
71299;BME280;59083;47.974;21.722;2023-03-25T01:55:51;99353.47;;;13.20;71.46
71299;BME280;59083;47.974;21.722;2023-03-25T01:58:54;99351.94;;;13.13;71.63
71299;BME280;59083;47.974;21.722;2023-03-25T02:02:00;99355.06;;;13.10;71.83
71299;BME280;59083;47.974;21.722;2023-03-25T02:05:15;99354.41;;;12.96;72.77
71299;BME280;59083;47.974;21.722;2023-03-25T02:08:19;99344.97;;;12.94;73.24
71299;BME280;59083;47.974;21.722;2023-03-25T02:11:22;99334.88;;;12.96;73.77
71299;BME280;59083;47.974;21.722;2023-03-25T02:14:31;99330.63;;;12.76;74.52
71299;BME280;59083;47.974;21.722;2023-03-25T02:18:02;99332.25;;;12.77;73.91
71299;BME280;59083;47.974;21.722;2023-03-25T02:24:43;99333.16;;;12.71;74.61
71299;BME280;59083;47.974;21.722;2023-03-25T02:28:01;99333.62;;;12.68;74.59
71299;BME280;59083;47.974;21.722;2023-03-25T02:41:03;99323.75;;;12.69;74.87
71299;BME280;59083;47.974;21.722;2023-03-25T02:44:18;99320.72;;;12.65;75.28
71299;BME280;59083;47.974;21.722;2023-03-25T02:47:25;99307.81;;;12.62;75.51
71299;BME280;59083;47.974;21.722;2023-03-25T02:50:33;99320.84;;;12.70;75.92
71299;BME280;59083;47.974;21.722;2023-03-25T02:53:38;99312.69;;;12.65;75.75
71299;BME280;59083;47.974;21.722;2023-03-25T02:56:42;99307.94;;;12.67;75.48
71299;BME280;59083;47.974;21.722;2023-03-25T02:59:46;99298.75;;;12.63;75.53
71299;BME280;59083;47.974;21.722;2023-03-25T03:03:03;99301.66;;;12.62;75.41
71299;BME280;59083;47.974;21.722;2023-03-25T03:06:06;99297.56;;;12.59;75.34
71299;BME280;59083;47.974;21.722;2023-03-25T03:09:21;99296.56;;;12.72;74.73
71299;BME280;59083;47.974;21.722;2023-03-25T03:12:35;99295.16;;;12.69;74.60
71299;BME280;59083;47.974;21.722;2023-03-25T03:22:41;99292.37;;;12.76;74.78
71299;BME280;59083;47.974;21.722;2023-03-25T03:29:16;99295.75;;;12.71;74.76
71299;BME280;59083;47.974;21.722;2023-03-25T03:32:20;99296.22;;;12.68;75.11
71299;BME280;59083;47.974;21.722;2023-03-25T03:35:34;99298.88;;;12.68;75.73
71299;BME280;59083;47.974;21.722;2023-03-25T03:38:42;99275.47;;;12.52;75.31
71299;BME280;59083;47.974;21.722;2023-03-25T03:41:49;99305.72;;;12.64;75.09
71299;BME280;59083;47.974;21.722;2023-03-25T03:44:56;99299.66;;;12.57;75.25
71299;BME280;59083;47.974;21.722;2023-03-25T03:48:04;99306.16;;;12.61;75.18
71299;BME280;59083;47.974;21.722;2023-03-25T03:51:27;99303.38;;;12.56;74.93
71299;BME280;59083;47.974;21.722;2023-03-25T03:54:33;99316.03;;;12.61;75.15
71299;BME280;59083;47.974;21.722;2023-03-25T03:57:46;99315.69;;;12.57;74.99
71299;BME280;59083;47.974;21.722;2023-03-25T04:01:10;99328.47;;;12.55;75.12
71299;BME280;59083;47.974;21.722;2023-03-25T04:04:21;99337.06;;;12.57;75.92
71299;BME280;59083;47.974;21.722;2023-03-25T04:07:33;99337.50;;;12.54;76.00
71299;BME280;59083;47.974;21.722;2023-03-25T04:10:44;99349.03;;;12.55;75.05
71299;BME280;59083;47.974;21.722;2023-03-25T04:13:54;99350.75;;;12.49;74.88
71299;BME280;59083;47.974;21.722;2023-03-25T04:16:58;99354.44;;;12.48;73.99
71299;BME280;59083;47.974;21.722;2023-03-25T04:19:59;99361.44;;;12.49;73.71
71299;BME280;59083;47.974;21.722;2023-03-25T04:23:02;99356.62;;;12.39;73.34
71299;BME280;59083;47.974;21.722;2023-03-25T04:26:04;99352.09;;;12.40;73.84
71299;BME280;59083;47.974;21.722;2023-03-25T04:29:06;99354.25;;;12.31;74.12
71299;BME280;59083;47.974;21.722;2023-03-25T04:32:13;99357.88;;;12.37;73.37
71299;BME280;59083;47.974;21.722;2023-03-25T04:35:15;99362.94;;;12.27;73.36
71299;BME280;59083;47.974;21.722;2023-03-25T04:38:18;99360.56;;;12.19;73.81
71299;BME280;59083;47.974;21.722;2023-03-25T04:41:21;99358.47;;;12.21;73.84
71299;BME280;59083;47.974;21.722;2023-03-25T04:44:22;99357.09;;;12.18;73.27
71299;BME280;59083;47.974;21.722;2023-03-25T04:47:26;99364.28;;;12.18;73.39
71299;BME280;59083;47.974;21.722;2023-03-25T04:50:28;99356.91;;;12.13;73.59
71299;BME280;59083;47.974;21.722;2023-03-25T04:53:30;99351.44;;;12.08;73.55
71299;BME280;59083;47.974;21.722;2023-03-25T04:56:31;99349.56;;;12.09;73.60
71299;BME280;59083;47.974;21.722;2023-03-25T04:59:32;99348.31;;;12.11;73.64
71299;BME280;59083;47.974;21.722;2023-03-25T05:02:34;99357.44;;;12.04;73.58
71299;BME280;59083;47.974;21.722;2023-03-25T05:05:35;99364.06;;;12.01;73.48
71299;BME280;59083;47.974;21.722;2023-03-25T05:08:37;99367.22;;;11.91;73.77
71299;BME280;59083;47.974;21.722;2023-03-25T05:11:38;99365.16;;;11.93;74.50
71299;BME280;59083;47.974;21.722;2023-03-25T05:14:41;99373.59;;;11.90;74.50
71299;BME280;59083;47.974;21.722;2023-03-25T05:17:43;99379.66;;;11.79;75.02
71299;BME280;59083;47.974;21.722;2023-03-25T05:20:45;99373.75;;;11.77;75.50
71299;BME280;59083;47.974;21.722;2023-03-25T05:23:47;99367.13;;;11.80;75.00
71299;BME280;59083;47.974;21.722;2023-03-25T05:26:48;99377.66;;;11.75;75.96
71299;BME280;59083;47.974;21.722;2023-03-25T05:29:49;99375.00;;;11.68;75.89
71299;BME280;59083;47.974;21.722;2023-03-25T05:32:51;99374.69;;;11.58;76.11
71299;BME280;59083;47.974;21.722;2023-03-25T05:35:53;99368.78;;;11.56;76.26
71299;BME280;59083;47.974;21.722;2023-03-25T05:38:54;99374.28;;;11.61;76.09
71299;BME280;59083;47.974;21.722;2023-03-25T05:41:56;99370.53;;;11.62;76.39
71299;BME280;59083;47.974;21.722;2023-03-25T05:45:02;99361.91;;;11.67;76.66
71299;BME280;59083;47.974;21.722;2023-03-25T05:48:04;99358.63;;;11.65;76.77
71299;BME280;59083;47.974;21.722;2023-03-25T05:51:10;99364.41;;;11.62;77.02
71299;BME280;59083;47.974;21.722;2023-03-25T05:54:13;99361.50;;;11.63;79.01
71299;BME280;59083;47.974;21.722;2023-03-25T05:57:15;99365.28;;;11.55;80.46
71299;BME280;59083;47.974;21.722;2023-03-25T06:00:18;99357.66;;;11.59;79.89
71299;BME280;59083;47.974;21.722;2023-03-25T06:03:19;99363.25;;;11.51;81.63
71299;BME280;59083;47.974;21.722;2023-03-25T06:06:21;99366.78;;;11.45;82.94
71299;BME280;59083;47.974;21.722;2023-03-25T06:09:25;99366.22;;;11.43;83.85
71299;BME280;59083;47.974;21.722;2023-03-25T06:12:30;99370.34;;;11.39;84.19
71299;BME280;59083;47.974;21.722;2023-03-25T06:15:38;99364.94;;;11.45;86.31
71299;BME280;59083;47.974;21.722;2023-03-25T06:18:41;99369.09;;;11.41;87.03
71299;BME280;59083;47.974;21.722;2023-03-25T06:21:42;99366.63;;;11.40;88.32
71299;BME280;59083;47.974;21.722;2023-03-25T06:24:44;99365.44;;;11.36;90.50
71299;BME280;59083;47.974;21.722;2023-03-25T06:27:47;99364.56;;;11.42;90.03
71299;BME280;59083;47.974;21.722;2023-03-25T06:30:49;99364.56;;;11.42;90.17
71299;BME280;59083;47.974;21.722;2023-03-25T06:33:52;99365.34;;;11.49;92.60
71299;BME280;59083;47.974;21.722;2023-03-25T06:36:53;99370.13;;;11.40;91.78
71299;BME280;59083;47.974;21.722;2023-03-25T06:39:55;99378.13;;;11.40;92.21
71299;BME280;59083;47.974;21.722;2023-03-25T06:42:56;99383.69;;;11.39;93.18
71299;BME280;59083;47.974;21.722;2023-03-25T06:46:00;99385.75;;;11.37;93.65
71299;BME280;59083;47.974;21.722;2023-03-25T06:49:01;99391.69;;;11.39;94.97
71299;BME280;59083;47.974;21.722;2023-03-25T06:52:03;99391.28;;;11.35;95.46
71299;BME280;59083;47.974;21.722;2023-03-25T06:55:04;99396.59;;;11.42;94.85
71299;BME280;59083;47.974;21.722;2023-03-25T06:58:06;99408.91;;;11.43;98.97
71299;BME280;59083;47.974;21.722;2023-03-25T07:01:07;99407.59;;;11.52;97.48
71299;BME280;59083;47.974;21.722;2023-03-25T07:04:08;99424.00;;;11.55;96.87
71299;BME280;59083;47.974;21.722;2023-03-25T07:07:09;99418.56;;;11.62;99.81
71299;BME280;59083;47.974;21.722;2023-03-25T07:10:12;99431.66;;;11.70;99.97
71299;BME280;59083;47.974;21.722;2023-03-25T07:13:13;99434.09;;;11.78;100.00
71299;BME280;59083;47.974;21.722;2023-03-25T07:16:14;99437.97;;;11.82;100.00
71299;BME280;59083;47.974;21.722;2023-03-25T07:19:15;99444.06;;;11.89;100.00
71299;BME280;59083;47.974;21.722;2023-03-25T07:22:17;99445.50;;;11.85;100.00
71299;BME280;59083;47.974;21.722;2023-03-25T07:25:18;99447.75;;;11.88;100.00
71299;BME280;59083;47.974;21.722;2023-03-25T07:28:19;99438.47;;;11.91;100.00
71299;BME280;59083;47.974;21.722;2023-03-25T07:31:21;99441.34;;;11.96;100.00
71299;BME280;59083;47.974;21.722;2023-03-25T07:34:22;99446.16;;;12.06;100.00
71299;BME280;59083;47.974;21.722;2023-03-25T07:37:23;99448.38;;;12.09;100.00
71299;BME280;59083;47.974;21.722;2023-03-25T07:40:25;99442.63;;;12.12;100.00
71299;BME280;59083;47.974;21.722;2023-03-25T07:43:26;99445.28;;;12.12;100.00
71299;BME280;59083;47.974;21.722;2023-03-25T07:46:27;99445.22;;;12.18;100.00
71299;BME280;59083;47.974;21.722;2023-03-25T07:49:28;99449.69;;;12.24;100.00
71299;BME280;59083;47.974;21.722;2023-03-25T07:52:30;99445.13;;;12.25;100.00
71299;BME280;59083;47.974;21.722;2023-03-25T07:55:31;99448.41;;;12.27;100.00
71299;BME280;59083;47.974;21.722;2023-03-25T07:58:32;99448.78;;;12.30;100.00
71299;BME280;59083;47.974;21.722;2023-03-25T08:01:34;99448.28;;;12.40;100.00
71299;BME280;59083;47.974;21.722;2023-03-25T08:04:35;99449.94;;;12.41;100.00
71299;BME280;59083;47.974;21.722;2023-03-25T08:07:37;99450.13;;;12.39;100.00
71299;BME280;59083;47.974;21.722;2023-03-25T08:10:41;99452.59;;;12.41;100.00
71299;BME280;59083;47.974;21.722;2023-03-25T08:13:43;99443.09;;;12.45;100.00
71299;BME280;59083;47.974;21.722;2023-03-25T08:16:45;99433.72;;;12.36;100.00
71299;BME280;59083;47.974;21.722;2023-03-25T08:19:46;99440.12;;;12.35;100.00
71299;BME280;59083;47.974;21.722;2023-03-25T08:22:47;99440.69;;;12.37;100.00
71299;BME280;59083;47.974;21.722;2023-03-25T08:25:49;99446.19;;;12.42;100.00
71299;BME280;59083;47.974;21.722;2023-03-25T08:28:52;99459.84;;;12.34;100.00
71299;BME280;59083;47.974;21.722;2023-03-25T08:31:55;99456.59;;;12.32;100.00
71299;BME280;59083;47.974;21.722;2023-03-25T08:34:56;99458.00;;;12.34;100.00
71299;BME280;59083;47.974;21.722;2023-03-25T08:37:57;99456.28;;;12.22;100.00
71299;BME280;59083;47.974;21.722;2023-03-25T08:41:02;99475.94;;;12.27;100.00
71299;BME280;59083;47.974;21.722;2023-03-25T08:44:06;99472.31;;;12.22;100.00
71299;BME280;59083;47.974;21.722;2023-03-25T08:47:08;99464.91;;;12.24;100.00
71299;BME280;59083;47.974;21.722;2023-03-25T08:50:09;99473.94;;;12.23;100.00
71299;BME280;59083;47.974;21.722;2023-03-25T08:53:10;99475.13;;;12.27;100.00
71299;BME280;59083;47.974;21.722;2023-03-25T08:56:11;99464.03;;;12.30;100.00
71299;BME280;59083;47.974;21.722;2023-03-25T08:59:13;99467.28;;;12.32;100.00
71299;BME280;59083;47.974;21.722;2023-03-25T09:02:14;99472.31;;;12.22;100.00
71299;BME280;59083;47.974;21.722;2023-03-25T09:05:16;99480.31;;;12.22;100.00
71299;BME280;59083;47.974;21.722;2023-03-25T09:08:18;99477.66;;;12.22;100.00
71299;BME280;59083;47.974;21.722;2023-03-25T09:11:19;99475.59;;;12.24;100.00
71299;BME280;59083;47.974;21.722;2023-03-25T09:14:20;99485.06;;;12.20;100.00
71299;BME280;59083;47.974;21.722;2023-03-25T09:17:22;99478.09;;;12.19;100.00
71299;BME280;59083;47.974;21.722;2023-03-25T09:20:23;99478.53;;;12.16;100.00
71299;BME280;59083;47.974;21.722;2023-03-25T09:23:25;99485.06;;;12.20;100.00
71299;BME280;59083;47.974;21.722;2023-03-25T09:26:26;99480.06;;;12.30;100.00
71299;BME280;59083;47.974;21.722;2023-03-25T09:29:28;99477.69;;;12.40;100.00
71299;BME280;59083;47.974;21.722;2023-03-25T09:32:29;99482.16;;;12.64;100.00
71299;BME280;59083;47.974;21.722;2023-03-25T09:35:31;99486.28;;;12.78;100.00
71299;BME280;59083;47.974;21.722;2023-03-25T09:38:32;99484.66;;;12.96;100.00
71299;BME280;59083;47.974;21.722;2023-03-25T09:45:42;99481.38;;;12.94;100.00
71299;BME280;59083;47.974;21.722;2023-03-25T09:48:45;99478.13;;;12.92;100.00
71299;BME280;59083;47.974;21.722;2023-03-25T09:51:49;99493.56;;;12.90;100.00
71299;BME280;59083;47.974;21.722;2023-03-25T09:54:54;99492.00;;;12.82;100.00
71299;BME280;59083;47.974;21.722;2023-03-25T10:04:56;99503.97;;;12.98;100.00
71299;BME280;59083;47.974;21.722;2023-03-25T10:11:27;99505.91;;;12.91;100.00
71299;BME280;59083;47.974;21.722;2023-03-25T10:21:32;99504.47;;;13.54;100.00
71299;BME280;59083;47.974;21.722;2023-03-25T10:25:04;99511.97;;;13.76;100.00
71299;BME280;59083;47.974;21.722;2023-03-25T10:28:13;99508.84;;;13.90;100.00
71299;BME280;59083;47.974;21.722;2023-03-25T10:31:19;99521.97;;;13.69;100.00
71299;BME280;59083;47.974;21.722;2023-03-25T10:34:33;99518.91;;;13.53;100.00
71299;BME280;59083;47.974;21.722;2023-03-25T10:37:39;99523.53;;;13.46;100.00
71299;BME280;59083;47.974;21.722;2023-03-25T10:40:46;99515.28;;;13.48;100.00
71299;BME280;59083;47.974;21.722;2023-03-25T10:43:53;99511.78;;;13.47;100.00
71299;BME280;59083;47.974;21.722;2023-03-25T10:47:01;99509.12;;;13.59;100.00
71299;BME280;59083;47.974;21.722;2023-03-25T10:50:05;99517.59;;;13.56;100.00
71299;BME280;59083;47.974;21.722;2023-03-25T10:53:15;99516.03;;;13.67;100.00
71299;BME280;59083;47.974;21.722;2023-03-25T10:56:25;99525.69;;;13.68;100.00
71299;BME280;59083;47.974;21.722;2023-03-25T11:02:53;99525.28;;;13.52;100.00
71299;BME280;59083;47.974;21.722;2023-03-25T11:05:55;99526.06;;;13.41;100.00
71299;BME280;59083;47.974;21.722;2023-03-25T11:12:17;99524.12;;;13.48;100.00
71299;BME280;59083;47.974;21.722;2023-03-25T11:15:30;99522.78;;;13.39;100.00
71299;BME280;59083;47.974;21.722;2023-03-25T11:18:35;99520.25;;;13.44;100.00
71299;BME280;59083;47.974;21.722;2023-03-25T11:21:38;99513.94;;;13.69;100.00
71299;BME280;59083;47.974;21.722;2023-03-25T11:24:42;99508.59;;;13.80;100.00
71299;BME280;59083;47.974;21.722;2023-03-25T11:27:51;99507.78;;;13.80;100.00
71299;BME280;59083;47.974;21.722;2023-03-25T11:31:10;99516.41;;;13.82;100.00
71299;BME280;59083;47.974;21.722;2023-03-25T11:37:19;99498.84;;;13.44;100.00
71299;BME280;59083;47.974;21.722;2023-03-25T11:40:20;99517.06;;;13.65;100.00
71299;BME280;59083;47.974;21.722;2023-03-25T11:43:27;99512.59;;;13.48;100.00
71299;BME280;59083;47.974;21.722;2023-03-25T11:46:32;99523.25;;;13.36;100.00
71299;BME280;59083;47.974;21.722;2023-03-25T11:49:36;99520.81;;;13.16;100.00
71299;BME280;59083;47.974;21.722;2023-03-25T11:52:44;99526.47;;;13.08;100.00
71299;BME280;59083;47.974;21.722;2023-03-25T11:55:51;99526.25;;;12.92;100.00
71299;BME280;59083;47.974;21.722;2023-03-25T11:58:57;99525.06;;;12.88;100.00
71299;BME280;59083;47.974;21.722;2023-03-25T12:02:02;99529.97;;;12.91;100.00
71299;BME280;59083;47.974;21.722;2023-03-25T12:08:13;99535.31;;;12.91;100.00
71299;BME280;59083;47.974;21.722;2023-03-25T12:11:29;99530.84;;;12.84;100.00
71299;BME280;59083;47.974;21.722;2023-03-25T12:14:47;99533.09;;;12.69;100.00
71299;BME280;59083;47.974;21.722;2023-03-25T12:40:48;99551.63;;;12.21;100.00
71299;BME280;59083;47.974;21.722;2023-03-25T12:47:29;99530.75;;;12.12;100.00
71299;BME280;59083;47.974;21.722;2023-03-25T12:50:50;99534.06;;;12.32;100.00
71299;BME280;59083;47.974;21.722;2023-03-25T12:54:08;99538.47;;;12.20;100.00
71299;BME280;59083;47.974;21.722;2023-03-25T13:07:48;99537.50;;;11.89;100.00
71299;BME280;59083;47.974;21.722;2023-03-25T13:10:59;99525.97;;;11.95;100.00
71299;BME280;59083;47.974;21.722;2023-03-25T13:14:09;99537.28;;;12.16;100.00
71299;BME280;59083;47.974;21.722;2023-03-25T13:17:28;99537.66;;;12.19;100.00
71299;BME280;59083;47.974;21.722;2023-03-25T13:20:34;99555.81;;;12.11;100.00
71299;BME280;59083;47.974;21.722;2023-03-25T13:23:38;99545.81;;;12.06;100.00
71299;BME280;59083;47.974;21.722;2023-03-25T13:26:43;99537.63;;;12.01;100.00
71299;BME280;59083;47.974;21.722;2023-03-25T13:29:48;99542.56;;;11.97;100.00
71299;BME280;59083;47.974;21.722;2023-03-25T13:32:54;99542.03;;;11.89;100.00
71299;BME280;59083;47.974;21.722;2023-03-25T13:36:14;99543.25;;;11.86;100.00
71299;BME280;59083;47.974;21.722;2023-03-25T13:39:21;99547.38;;;11.89;100.00
71299;BME280;59083;47.974;21.722;2023-03-25T13:42:38;99551.06;;;11.88;100.00
71299;BME280;59083;47.974;21.722;2023-03-25T13:48:57;99562.97;;;11.85;100.00
71299;BME280;59083;47.974;21.722;2023-03-25T13:52:01;99552.31;;;11.85;100.00
71299;BME280;59083;47.974;21.722;2023-03-25T13:55:11;99550.25;;;11.87;100.00
71299;BME280;59083;47.974;21.722;2023-03-25T14:12:10;99529.22;;;11.97;100.00
71299;BME280;59083;47.974;21.722;2023-03-25T14:15:19;99531.47;;;12.00;100.00
71299;BME280;59083;47.974;21.722;2023-03-25T14:18:22;99518.97;;;11.94;100.00
71299;BME280;59083;47.974;21.722;2023-03-25T14:24:32;99502.09;;;12.00;100.00
71299;BME280;59083;47.974;21.722;2023-03-25T14:27:37;99497.22;;;12.16;100.00
71299;BME280;59083;47.974;21.722;2023-03-25T14:30:38;99506.06;;;12.16;100.00
71299;BME280;59083;47.974;21.722;2023-03-25T14:43:51;99489.78;;;11.99;100.00
71299;BME280;59083;47.974;21.722;2023-03-25T14:53:21;99481.75;;;11.68;100.00
71299;BME280;59083;47.974;21.722;2023-03-25T14:56:30;99480.66;;;11.51;100.00
71299;BME280;59083;47.974;21.722;2023-03-25T14:59:52;99464.22;;;11.54;100.00
71299;BME280;59083;47.974;21.722;2023-03-25T15:03:01;99456.44;;;11.52;99.94
71299;BME280;59083;47.974;21.722;2023-03-25T15:06:06;99456.38;;;11.59;100.00
71299;BME280;59083;47.974;21.722;2023-03-25T15:09:11;99450.19;;;11.65;100.00
71299;BME280;59083;47.974;21.722;2023-03-25T15:12:17;99454.22;;;11.74;100.00
71299;BME280;59083;47.974;21.722;2023-03-25T15:25:00;99458.88;;;11.85;98.92
71299;BME280;59083;47.974;21.722;2023-03-25T15:48:26;99449.28;;;11.78;98.96
71299;BME280;59083;47.974;21.722;2023-03-25T15:55:25;99453.69;;;11.90;99.63
71299;BME280;59083;47.974;21.722;2023-03-25T15:58:35;99457.56;;;11.94;98.81
71299;BME280;59083;47.974;21.722;2023-03-25T16:01:42;99461.59;;;12.04;99.53
71299;BME280;59083;47.974;21.722;2023-03-25T16:04:46;99457.94;;;11.98;100.00
71299;BME280;59083;47.974;21.722;2023-03-25T16:07:48;99447.00;;;11.81;100.00
71299;BME280;59083;47.974;21.722;2023-03-25T16:10:50;99459.72;;;11.79;100.00
71299;BME280;59083;47.974;21.722;2023-03-25T16:14:06;99464.34;;;11.66;100.00
71299;BME280;59083;47.974;21.722;2023-03-25T16:17:10;99476.09;;;11.58;100.00
71299;BME280;59083;47.974;21.722;2023-03-25T16:20:14;99479.78;;;11.57;100.00
71299;BME280;59083;47.974;21.722;2023-03-25T16:23:20;99501.12;;;11.57;100.00
71299;BME280;59083;47.974;21.722;2023-03-25T16:26:37;99524.16;;;11.51;100.00
71299;BME280;59083;47.974;21.722;2023-03-25T16:29:39;99520.87;;;11.56;100.00
71299;BME280;59083;47.974;21.722;2023-03-25T16:32:41;99515.25;;;11.64;100.00
71299;BME280;59083;47.974;21.722;2023-03-25T16:35:44;99506.84;;;11.67;100.00
71299;BME280;59083;47.974;21.722;2023-03-25T16:38:46;99508.56;;;11.55;100.00
71299;BME280;59083;47.974;21.722;2023-03-25T16:41:49;99517.59;;;11.54;100.00
71299;BME280;59083;47.974;21.722;2023-03-25T16:44:51;99510.00;;;11.51;100.00
71299;BME280;59083;47.974;21.722;2023-03-25T16:47:53;99499.56;;;11.49;100.00
71299;BME280;59083;47.974;21.722;2023-03-25T16:51:17;99493.84;;;11.39;100.00
71299;BME280;59083;47.974;21.722;2023-03-25T16:54:35;99505.44;;;11.27;100.00
71299;BME280;59083;47.974;21.722;2023-03-25T16:57:38;99509.53;;;11.23;100.00
71299;BME280;59083;47.974;21.722;2023-03-25T17:00:41;99519.38;;;11.29;100.00
71299;BME280;59083;47.974;21.722;2023-03-25T17:03:47;99511.97;;;11.31;100.00
71299;BME280;59083;47.974;21.722;2023-03-25T17:06:50;99518.13;;;11.31;100.00
71299;BME280;59083;47.974;21.722;2023-03-25T17:09:58;99512.44;;;11.21;100.00
71299;BME280;59083;47.974;21.722;2023-03-25T17:13:07;99509.00;;;11.14;100.00
71299;BME280;59083;47.974;21.722;2023-03-25T17:16:09;99512.28;;;11.09;100.00
71299;BME280;59083;47.974;21.722;2023-03-25T17:19:12;99516.59;;;11.10;100.00
71299;BME280;59083;47.974;21.722;2023-03-25T17:22:27;99526.41;;;11.16;100.00
71299;BME280;59083;47.974;21.722;2023-03-25T17:25:55;99522.28;;;11.21;100.00
71299;BME280;59083;47.974;21.722;2023-03-25T17:29:04;99515.31;;;11.19;100.00
71299;BME280;59083;47.974;21.722;2023-03-25T17:32:16;99515.16;;;11.14;100.00
71299;BME280;59083;47.974;21.722;2023-03-25T17:35:25;99522.97;;;11.09;100.00
71299;BME280;59083;47.974;21.722;2023-03-25T17:38:37;99517.44;;;11.04;100.00
71299;BME280;59083;47.974;21.722;2023-03-25T17:41:40;99515.63;;;10.98;100.00
71299;BME280;59083;47.974;21.722;2023-03-25T17:44:43;99518.50;;;10.90;100.00
71299;BME280;59083;47.974;21.722;2023-03-25T17:47:45;99517.50;;;10.91;100.00
71299;BME280;59083;47.974;21.722;2023-03-25T17:50:54;99510.53;;;10.90;100.00
71299;BME280;59083;47.974;21.722;2023-03-25T17:53:56;99515.03;;;10.83;100.00
71299;BME280;59083;47.974;21.722;2023-03-25T17:56:57;99515.69;;;10.78;100.00
71299;BME280;59083;47.974;21.722;2023-03-25T17:59:58;99514.47;;;10.74;100.00
71299;BME280;59083;47.974;21.722;2023-03-25T18:03:00;99509.34;;;10.73;100.00
71299;BME280;59083;47.974;21.722;2023-03-25T18:06:01;99508.53;;;10.72;100.00
71299;BME280;59083;47.974;21.722;2023-03-25T18:09:05;99514.69;;;10.73;100.00
71299;BME280;59083;47.974;21.722;2023-03-25T18:12:07;99511.19;;;10.79;100.00
71299;BME280;59083;47.974;21.722;2023-03-25T18:15:09;99511.34;;;10.84;100.00
71299;BME280;59083;47.974;21.722;2023-03-25T18:18:19;99515.84;;;10.90;100.00
71299;BME280;59083;47.974;21.722;2023-03-25T18:21:20;99518.91;;;10.94;100.00
71299;BME280;59083;47.974;21.722;2023-03-25T18:24:23;99515.81;;;10.97;100.00
71299;BME280;59083;47.974;21.722;2023-03-25T18:27:24;99521.53;;;11.00;100.00
71299;BME280;59083;47.974;21.722;2023-03-25T18:30:28;99512.13;;;10.98;100.00
71299;BME280;59083;47.974;21.722;2023-03-25T18:33:29;99518.28;;;10.98;100.00
71299;BME280;59083;47.974;21.722;2023-03-25T18:36:34;99515.81;;;10.97;100.00
71299;BME280;59083;47.974;21.722;2023-03-25T18:39:35;99525.69;;;10.96;100.00
71299;BME280;59083;47.974;21.722;2023-03-25T18:42:37;99526.09;;;10.93;100.00
71299;BME280;59083;47.974;21.722;2023-03-25T18:45:38;99524.09;;;10.82;100.00